Consulta les dades en temps real de l'estació municipal de Seva
| Hora UTC | 04:10 |
|---|---|
| Temperatura | 16.7 ºC |
| Sòl 15 cm | 14.9 ºC |
| Humitat | 89.6 % |
| Pressió | 1025.3 hPa |
| Pluja | 0.0 mm |
| Velocitat vent | 2.3 km/h |
| Direcció vent | ESE |
| Radiació solar | 0.0 W/m² |
| Temperatura (ºC) | Humitat (%) | Pressió (hPa) | Velocitat vent (km/h) | Precipitació (mm) | Radiació solar (W/m²) | ||||||||||||||
|---|---|---|---|---|---|---|---|---|---|---|---|---|---|---|---|---|---|---|---|
| Hora UTC | Aire | Sòl 15 cm | Humitat | Pressió | Vel. | Dir. | Vel. Max | Dir. | Intent. màx 5 min. | Rad. Sol. | |||||||||
| 00:05 | 18.2 | 16.3 | 84.0 | 1026.0 | 2.9 | NE | 2.9 | NNE | 0.0 | 0.0 | |||||||||
| 00:10 | 18.3 | 16.4 | 84.1 | 1026.0 | 2.8 | E | 4.2 | E | 0.0 | 0.0 | |||||||||
| 00:15 | 18.4 | 16.4 | 83.4 | 1026.1 | 3.4 | E | 5.3 | E | 0.0 | 0.1 | |||||||||
| 00:20 | 18.4 | 16.4 | 82.9 | 1026.0 | 3.5 | E | 5.3 | ENE | 0.0 | 0.1 | |||||||||
| 00:25 | 18.4 | 16.4 | 83.3 | 1026.1 | 4.1 | ENE | 5.3 | ENE | 0.0 | 0.0 | |||||||||
| 00:30 | 18.3 | 16.3 | 83.4 | 1026.1 | 4.4 | E | 5.6 | E | 0.0 | 0.1 | |||||||||
| 00:35 | 18.2 | 16.3 | 83.6 | 1026.1 | 3.9 | E | 5.6 | ENE | 0.0 | 0.1 | |||||||||
| 00:40 | 18.1 | 16.3 | 83.8 | 1026.0 | 4.6 | E | 6.7 | E | 0.0 | 0.1 | |||||||||
| 00:45 | 18.0 | 16.2 | 84.3 | 1026.0 | 5.4 | E | 6.7 | E | 0.0 | 0.0 | |||||||||
| 00:50 | 17.9 | 16.2 | 84.6 | 1026.0 | 4.7 | E | 6.4 | E | 0.0 | 0.0 | |||||||||
| 00:55 | 17.8 | 16.1 | 85.2 | 1026.0 | 5.2 | E | 7.1 | E | 0.0 | 0.0 | |||||||||
| 01:00 | 17.7 | 16.0 | 85.4 | 1026.0 | 5.1 | E | 6.7 | E | 0.0 | 0.1 | |||||||||
| 01:05 | 17.7 | 16.1 | 85.6 | 1025.9 | 5.2 | E | 7.1 | E | 0.0 | 0.1 | |||||||||
| 01:10 | 17.7 | 16.0 | 85.7 | 1025.9 | 4.7 | E | 6.0 | E | 0.0 | 0.1 | |||||||||
| 01:15 | 17.8 | 16.1 | 85.9 | 1025.9 | 4.9 | E | 6.0 | E | 0.0 | 0.0 | |||||||||
| 01:20 | 17.7 | 16.0 | 85.8 | 1025.9 | 4.9 | E | 6.0 | E | 0.0 | 0.0 | |||||||||
| 01:25 | 17.7 | 16.0 | 86.0 | 1025.8 | 4.2 | E | 6.4 | E | 0.0 | 0.0 | |||||||||
| 01:30 | 17.6 | 16.0 | 86.3 | 1025.9 | 2.8 | E | 4.2 | E | 0.0 | 0.1 | |||||||||
| 01:35 | 17.6 | 15.9 | 86.5 | 1025.9 | 2.8 | ENE | 4.6 | E | 0.0 | 0.1 | |||||||||
| 01:40 | 17.6 | 15.9 | 86.5 | 1025.9 | 1.9 | ENE | 5.6 | ENE | 0.0 | 0.1 | |||||||||
| 01:45 | 17.6 | 15.8 | 86.6 | 1025.9 | 1.1 | ESE | 2.8 | E | 0.0 | 0.1 | |||||||||
| 01:50 | 17.5 | 15.8 | 86.8 | 1025.9 | 0.1 | SE | 1.4 | SE | 0.0 | 0.1 | |||||||||
| 01:55 | 17.5 | 15.7 | 86.9 | 1025.9 | 0.5 | SE | 2.8 | ESE | 0.0 | 0.0 | |||||||||
| 02:00 | 17.4 | 15.6 | 87.0 | 1025.8 | 0.1 | SE | 1.1 | SE | 0.0 | 0.0 | |||||||||
| 02:05 | 17.4 | 15.6 | 87.3 | 1025.9 | 1.6 | ESE | 2.5 | SE | 0.0 | 0.0 | |||||||||
| 02:10 | 17.3 | 15.5 | 87.4 | 1025.9 | 1.6 | E | 3.2 | E | 0.0 | 0.1 | |||||||||
| 02:15 | 17.3 | 15.5 | 87.3 | 1025.8 | 2.3 | ENE | 3.2 | E | 0.0 | 0.1 | |||||||||
| 02:20 | 17.4 | 15.5 | 87.2 | 1025.9 | 1.7 | ESE | 2.8 | SE | 0.0 | 0.0 | |||||||||
| 02:25 | 17.5 | 15.5 | 87.2 | 1025.8 | 2.6 | SE | 3.2 | SE | 0.0 | 0.0 | |||||||||
| 02:30 | 17.6 | 15.5 | 86.5 | 1025.8 | 0.3 | SE | 2.1 | SE | 0.0 | 0.1 | |||||||||
| 02:35 | 17.5 | 15.5 | 86.4 | 1025.8 | 2.0 | SSE | 3.5 | SE | 0.0 | 0.0 | |||||||||
| 02:40 | 17.6 | 15.5 | 86.7 | 1025.8 | 0.9 | SSW | 2.1 | SSW | 0.0 | 0.1 | |||||||||
| 02:45 | 17.5 | 15.5 | 86.3 | 1025.8 | 1.5 | SSE | 2.5 | SE | 0.0 | 0.0 | |||||||||
| 02:50 | 17.4 | 15.5 | 86.8 | 1025.8 | 0.7 | SSE | 1.8 | SE | 0.0 | 0.0 | |||||||||
| 02:55 | 17.4 | 15.5 | 86.9 | 1025.7 | 0.5 | SE | 2.5 | SE | 0.0 | 0.1 | |||||||||
| 03:00 | 17.4 | 15.5 | 86.9 | 1025.7 | 0.6 | ESE | 1.8 | SE | 0.0 | 0.1 | |||||||||
| 03:05 | 17.4 | 15.5 | 87.4 | 1025.7 | 0.0 | NNE | 0.0 | ESE | 0.0 | 0.0 | |||||||||
| 03:10 | 17.3 | 15.4 | 87.6 | 1025.7 | 0.0 | NNE | 0.0 | W | 0.0 | 0.0 | |||||||||
| 03:15 | 17.2 | 15.3 | 87.7 | 1025.7 | 0.3 | SSE | 2.1 | SSE | 0.0 | 0.1 | |||||||||
| 03:20 | 17.2 | 15.2 | 87.9 | 1025.7 | 1.3 | S | 2.5 | S | 0.0 | 0.0 | |||||||||
| 03:25 | 17.2 | 15.2 | 88.3 | 1025.7 | 1.6 | S | 3.2 | S | 0.0 | 0.0 | |||||||||
| 03:30 | 17.1 | 15.2 | 88.3 | 1025.7 | 0.6 | SE | 2.1 | SE | 0.0 | 0.0 | |||||||||
| 03:35 | 17.0 | 15.1 | 88.6 | 1025.7 | 1.5 | E | 2.8 | ESE | 0.0 | 0.0 | |||||||||
| 03:40 | 17.0 | 15.0 | 88.9 | 1025.6 | 2.2 | ESE | 3.5 | ESE | 0.0 | 0.0 | |||||||||
| 03:45 | 17.0 | 15.0 | 88.8 | 1025.6 | 2.8 | E | 3.5 | E | 0.0 | 0.0 | |||||||||
| 03:50 | 16.9 | 15.1 | 88.8 | 1025.5 | 2.6 | ENE | 3.2 | E | 0.0 | 0.0 | |||||||||
| 03:55 | 16.9 | 15.0 | 88.9 | 1025.5 | 2.1 | ENE | 2.8 | ENE | 0.0 | 0.1 | |||||||||
| 04:00 | 16.8 | 14.9 | 88.7 | 1025.4 | 2.2 | E | 3.2 | E | 0.0 | 0.0 | |||||||||
| 04:05 | 16.7 | 14.9 | 88.9 | 1025.4 | 3.0 | E | 3.9 | ENE | 0.0 | 0.0 | |||||||||
| 04:10 | 16.7 | 14.9 | 89.6 | 1025.3 | 2.3 | ESE | 3.2 | E | 0.0 | 0.0 | |||||||||
| Màxima | 18.4 | 16.4 | 89.6 | 1026.1 | 5.4 | E | 7.1 | E | 0.0 | 0.1 | |||||||||
| Mínima | 16.7 | 14.9 | 82.9 | 1025.3 | |||||||||||||||
| Total | 0.0 | ||||||||||||||||||